This is the latest recevied weather packets stored in our database for station/object IZ2MHJ-3. If no packets are shown the sender has not sent any weather packets the latest 1 day(s).
| Time | Temp. | Humidity | Pressure | Rain* | Wind** | Luminosity | Snow |
|---|---|---|---|---|---|---|---|
| 1778079883 | 18.89° C | 70% | 1008.7 hPa | - | - | - | - |
| 1778076282 | 18.33° C | 71% | 1009.6 hPa | - | - | - | - |
| 1778073882 | 19.44° C | 66% | 1009.9 hPa | - | - | - | - |
| 1778071481 | 18.33° C | 77% | 1010.3 hPa | - | - | - | - |
| 1778070281 | 17.22° C | 78% | 1010.6 hPa | - | - | - | - |
| 1778067880 | 16.67° C | 82% | 1010.9 hPa | - | - | - | - |
| 1778065479 | 15° C | 87% | 1011.1 hPa | - | - | - | - |
| 1778064279 | 15° C | 88% | 1010.4 hPa | - | - | - | - |
| 1778060678 | 13.33° C | 94% | 1011.3 hPa | - | - | - | - |
| 1778059478 | 13.33° C | 95% | 1011.1 hPa | - | - | - | - |
| 1778057077 | 13.89° C | 91% | 1011.1 hPa | - | - | - | - |
| 1778055877 | 13.89° C | 94% | 1011.1 hPa | - | - | - | - |
| 1778054677 | 13.89° C | 96% | 1011.2 hPa | - | - | - | - |
| 1778052276 | 13.89° C | 96% | 1011.3 hPa | - | - | - | - |
| 1778051076 | 13.33° C | 99% | 1011.6 hPa | - | - | - | - |
| 1778049876 | 12.78° C | 99% | 1012.1 hPa | - | - | - | - |
| 1778048675 | 12.22° C | 99% | 1012.1 hPa | - | - | - | - |
| 1778047475 | 13.33° C | 99% | 1011.9 hPa | - | - | - | - |
| 1778046274 | 13.33° C | 99% | 1011.7 hPa | - | - | - | - |
| 1778045074 | 13.33° C | 99% | 1011.7 hPa | - | - | - | - |
| 1778043874 | 13.33° C | 99% | 1012.1 hPa | - | - | - | - |
| 1778042674 | 12.78° C | 99% | 1011.6 hPa | - | - | - | - |
| 1778041473 | 12.78° C | 99% | 1012.4 hPa | - | - | - | - |
| 1778040273 | 13.33° C | 99% | 1012.2 hPa | - | - | - | - |
| 1778039072 | 12.78° C | 99% | 1012.1 hPa | - | - | - | - |
* Rain since midnight (hover to see other rain measurements)
** Current wind speed in m/s (hover to see current wind gust speed)